Aurillac Airport

LFLW · Auvergne-Rhône-Alpes, France

5 octobre 2022

Temps Code Temps Temp. Vue Base cloud Vent METAR/SPECI
04:00
V
10 °C 10 km+ - Var Var 3 kt METAR LFLC 050200Z AUTO VRB03KT CAVOK 10/09 Q1022 TEMPO 0400 FG VV///
03:30
V
11 °C 10 km+ - Var Var 2 kt METAR LFLC 050130Z AUTO VRB02KT CAVOK 11/10 Q1023 TEMPO 0400 FG VV///
03:00
V
10 °C 10 km+ - 120° 120° 6 kt METAR LFLC 050100Z AUTO 12006KT CAVOK 10/09 Q1023 TEMPO 0400 FG VV///
02:30
V
11 °C 10 km+ - Var Var 3 kt METAR LFLC 050030Z AUTO VRB03KT CAVOK 11/10 Q1023 TEMPO 0400 FG VV///
02:00
V
10 °C 10 km+ - 260° 260° 3 kt METAR LFLC 050000Z AUTO 26003KT CAVOK 10/09 Q1023 NOSIG
01:30
V
12 °C 10 km+ - 270° 270° 3 kt METAR LFLC 042330Z AUTO 27003KT CAVOK 12/11 Q1023 NOSIG
01:00
V
11 °C 10 km+ - 260° 260° 2 kt METAR LFLC 042300Z AUTO 26002KT CAVOK 11/10 Q1023 NOSIG
00:30
V
12 °C 10 km+ - 250° 250° 2 kt METAR LFLC 042230Z AUTO 25002KT CAVOK 12/11 Q1023 NOSIG
00:00
V
11 °C 10 km+ - 220° 220° 1 kt METAR LFLC 042200Z AUTO 22001KT CAVOK 11/10 Q1023 NOSIG

4 octobre 2022

Temps Code Temps Temp. Vue Base cloud Vent METAR/SPECI
23:30
V
12 °C 10 km+ - Var 000° 0 kt METAR LFLC 042130Z AUTO 00000KT CAVOK 12/11 Q1023 NOSIG
23:00
V
12 °C 10 km+ - 120° 120° 2 kt METAR LFLC 042100Z AUTO 12002KT CAVOK 12/11 Q1023 NOSIG
22:30
V
13 °C 10 km+ - 100° 100° 3 kt METAR LFLC 042030Z AUTO 10003KT CAVOK 13/10 Q1023 NOSIG
22:00
V
13 °C 10 km+ - Var Var 3 kt METAR LFLC 042000Z AUTO VRB03KT CAVOK 13/11 Q1022 NOSIG
21:30
V
13 °C 10 km+ - 130° 130° 3 kt METAR LFLC 041930Z AUTO 13003KT 090V150 CAVOK 13/11 Q1022 NOSIG
21:00
V
14 °C 10 km+ - Var Var 2 kt METAR LFLC 041900Z AUTO VRB02KT CAVOK 14/11 Q1022 NOSIG
20:30
V
15 °C 10 km+ - 260° 260° 4 kt METAR LFLC 041830Z AUTO 26004KT CAVOK 15/11 Q1022 NOSIG
20:00
V
16 °C 10 km+ - 210° 210° 1 kt METAR LFLC 041800Z AUTO 21001KT CAVOK 16/12 Q1021 NOSIG
19:30
V
18 °C 10 km+ - Var Var 2 kt METAR LFLC 041730Z AUTO VRB02KT CAVOK 18/12 Q1021 NOSIG
19:00
V
20 °C 10 km+ - 060° 060° 3 kt METAR LFLC 041700Z AUTO 06003KT CAVOK 20/12 Q1021 NOSIG
18:30
V
21 °C 10 km+ - 080° 080° 3 kt METAR LFLC 041630Z AUTO 08003KT CAVOK 21/13 Q1020 NOSIG
18:00
V
22 °C 10 km+ - 060° 060° 3 kt METAR LFLC 041600Z AUTO 06003KT 350V110 CAVOK 22/12 Q1020 NOSIG
17:30
V
23 °C 10 km+ - 060° 060° 4 kt METAR LFLC 041530Z AUTO 06004KT 010V120 CAVOK 23/12 Q1021 NOSIG
17:00
V
23 °C 10 km+ - 070° 070° 4 kt METAR LFLC 041500Z AUTO 07004KT 010V120 CAVOK 23/12 Q1020 NOSIG
16:30
V
23 °C 10 km+ - 060° 060° 4 kt METAR LFLC 041430Z AUTO 06004KT 350V110 CAVOK 23/12 Q1020 NOSIG
16:00
V
23 °C 10 km+ - Var Var 2 kt METAR LFLC 041400Z AUTO VRB02KT CAVOK 23/12 Q1020 NOSIG
15:30
V
22 °C 10 km+ - Var Var 2 kt METAR LFLC 041330Z AUTO VRB02KT CAVOK 22/12 Q1020 NOSIG
15:00
V
22 °C 10 km+ - Var Var 3 kt METAR LFLC 041300Z AUTO VRB03KT CAVOK 22/12 Q1021 NOSIG
14:30
V
21 °C 10 km+ - Var Var 3 kt METAR LFLC 041230Z AUTO VRB03KT CAVOK 21/12 Q1021 NOSIG
14:00
V
21 °C 10 km+ - 130° 130° 4 kt METAR LFLC 041200Z AUTO 13004KT 080V210 CAVOK 21/11 Q1021 NOSIG
13:30
V
20 °C 10 km+ - 120° 120° 4 kt METAR LFLC 041130Z AUTO 12004KT 050V180 CAVOK 20/11 Q1022 NOSIG
13:00
V
18 °C 10 km+ - 140° 140° 4 kt METAR LFLC 041100Z AUTO 14004KT 080V190 CAVOK 18/11 Q1022 NOSIG
12:30
V
18 °C 10 km+ - Var Var 3 kt METAR LFLC 041030Z AUTO VRB03KT CAVOK 18/10 Q1022 NOSIG
12:00
V
16 °C 10 km+ - 190° 190° 5 kt METAR LFLC 041000Z AUTO 19005KT 130V230 CAVOK 16/11 Q1022 NOSIG
11:30
V
15 °C 10 km+ - 190° 190° 5 kt METAR LFLC 040930Z AUTO 19005KT 150V220 CAVOK 15/11 Q1022 NOSIG
11:00
V
14 °C 10 km+ - 190° 190° 5 kt METAR LFLC 040900Z AUTO 19005KT 130V240 CAVOK 14/10 Q1022 NOSIG
10:30
V
13 °C 10 km+ - 190° 190° 5 kt METAR LFLC 040830Z AUTO 19005KT 140V230 9999 FEW012 13/10 Q1022 NOSIG
10:00
V
12 °C 10 km+ - 190° 190° 8 kt METAR LFLC 040800Z AUTO 19008KT 160V220 9999 FEW007 12/11 Q1022 TEMPO BKN010
09:30
I
11 °C 10 km+ 900 ft 180° 180° 7 kt METAR LFLC 040730Z AUTO 18007KT 9999 BKN009 11/10 Q1022 TEMPO BKN016
09:00
I
11 °C 10 km+ 800 ft 160° 160° 4 kt METAR LFLC 040700Z AUTO 16004KT 130V190 9999 BKN008 BKN012 11/10 Q1022 TEMPO 0600 FG VV///
08:30
I
10 °C 10 km+ 700 ft Var Var 4 kt METAR LFLC 040630Z AUTO VRB04KT 9999 BKN007 BKN011 10/10 Q1022 TEMPO 0600 FG VV///
08:00
I
11 °C 10 km+ 700 ft Var Var 3 kt METAR LFLC 040600Z AUTO VRB03KT 9999 BKN007 11/10 Q1021 TEMPO 0600 FG VV///
07:30
I
11 °C 10 km+ 800 ft 190° 190° 6 kt METAR LFLC 040530Z AUTO 19006KT 130V260 9999 BKN008 11/10 Q1021 TEMPO 0600 FG VV///
07:00
M
11 °C 10 km+ 1.100 ft 180° 180° 7 kt METAR LFLC 040500Z AUTO 18007KT 140V290 9999 OVC011 11/10 Q1021 TEMPO 0400 FG VV///
06:30
M
8 °C 10 km+ 1.500 ft Var 000° 0 kt METAR LFLC 040430Z AUTO 00000KT 9999 BKN015 08/08 Q1021 TEMPO 0400 FG VV///
06:00
L
7 °C 2,3 km - 350° 350° 3 kt METAR LFLC 040400Z AUTO 35003KT 9999 2300 VV/// 07/07 Q1021 TEMPO 0400 FG
05:30
I
7 °C 2,1 km - Var Var 2 kt METAR LFLC 040330Z AUTO VRB02KT 7000 2100 R26/1400U FEW001 07/07 Q1021 TEMPO 0400 FG VV///
05:00
L
8 °C 900 m - 040° 040° 2 kt METAR LFLC 040300Z AUTO 04002KT 9999 0900 R26/1200D R08/P2400 BCFG NSC 08/07 Q1022 TEMPO 0400 FG VV///
04:30
L
8 °C 10 km+ - 240° 240° 2 kt METAR LFLC 040230Z AUTO 24002KT 9999 VV/// 08/08 Q1022 TEMPO 0400 FG
04:00
L
8 °C 10 km+ - 270° 270° 2 kt METAR LFLC 040200Z AUTO 27002KT 9999 VV/// 08/08 Q1022 TEMPO 0400 FG
03:30
L
7 °C 800 m - 250° 250° 2 kt METAR LFLC 040130Z AUTO 25002KT 9999 0800 R26/1000U R08/P2400 BCFG VV/// 07/07 Q1022 TEMPO 0400 FG
03:00
L
7 °C 600 m - Var 000° 0 kt METAR LFLC 040100Z AUTO 00000KT 0900 0600 R26/1100D R08/1200D FG VV/// 07/06 Q1022 TEMPO 0400 FG
02:30
L
7 °C 500 m - 060° 060° 1 kt METAR LFLC 040030Z AUTO 06001KT 1000 0500 R26/0600D R08/P2400 BCFG VV/// 07/07 Q1023 TEMPO 0400 FG
02:00
L
7 °C 550 m - Var 000° 0 kt METAR LFLC 040000Z AUTO 00000KT 9999 0550 R26/0650D R08/P2400 BCFG VV/// 07/07 Q1022 TEMPO 0400 FG
01:30
L
9 °C 1,1 km - Var 000° 0 kt METAR LFLC 032330Z AUTO 00000KT 9999 1100 R26/1300U R08/P2400 NSC 09/08 Q1022 TEMPO 0400 FG VV///
01:00
V
9 °C 10 km+ - Var 000° 0 kt METAR LFLC 032300Z AUTO 00000KT CAVOK 09/09 Q1022 TEMPO 0400 FG VV///
00:30
L
9 °C 1,4 km - Var Var 1 kt METAR LFLC 032230Z AUTO VRB01KT 9999 1400 R26/P2400 R08/P2400 NSC 09/09 Q1023 TEMPO 0400 FG VV///
00:00
V
9 °C 10 km+ - 140° 140° 2 kt METAR LFLC 032200Z AUTO 14002KT CAVOK 09/08 Q1023 NOSIG

3 octobre 2022

Temps Code Temps Temp. Vue Base cloud Vent METAR/SPECI
23:30
V
10 °C 10 km+ - 090° 090° 2 kt METAR LFLC 032130Z AUTO 09002KT CAVOK 10/09 Q1023 NOSIG
23:00
V
10 °C 10 km+ - 110° 110° 2 kt METAR LFLC 032100Z AUTO 11002KT CAVOK 10/09 Q1023 NOSIG
22:30
V
11 °C 10 km+ - Var 000° 0 kt METAR LFLC 032030Z AUTO 00000KT CAVOK 11/09 Q1023 NOSIG
22:00
V
14 °C 10 km+ - 310° 310° 2 kt METAR LFLC 032000Z AUTO 31002KT CAVOK 14/11 Q1023 NOSIG
21:30
V
14 °C 10 km+ - 310° 310° 4 kt METAR LFLC 031930Z AUTO 31004KT 9999 FEW043 14/12 Q1023 NOSIG
21:00
V
15 °C 10 km+ 4.300 ft 330° 330° 3 kt METAR LFLC 031900Z AUTO 33003KT 300V360 9999 BKN043 15/12 Q1023 NOSIG
20:30
V
16 °C 10 km+ 4.400 ft 340° 340° 4 kt METAR LFLC 031830Z AUTO 34004KT 9999 BKN044 16/12 Q1023 NOSIG
20:00
V
16 °C 10 km+ 4.500 ft 340° 340° 4 kt METAR LFLC 031800Z AUTO 34004KT 9999 BKN045 16/12 Q1023 NOSIG
19:30
V
17 °C 10 km+ 4.300 ft 350° 350° 5 kt METAR LFLC 031730Z AUTO 35005KT 9999 OVC043 17/12 Q1023 NOSIG
19:00
V
18 °C 10 km+ 4.300 ft 010° 010° 4 kt METAR LFLC 031700Z AUTO 01004KT 350V050 9999 BKN043 18/12 Q1023 NOSIG
18:30
V
18 °C 10 km+ 4.400 ft 010° 010° 4 kt METAR LFLC 031630Z AUTO 01004KT 340V070 9999 OVC044 18/13 Q1023 NOSIG
18:00
V
18 °C 10 km+ 4.400 ft 010° 010° 7 kt METAR LFLC 031600Z AUTO 01007KT 340V040 9999 FEW033 OVC044 18/13 Q1023 NOSIG
17:30
V
19 °C 10 km+ 4.300 ft 030° 030° 5 kt METAR LFLC 031530Z AUTO 03005KT 330V080 9999 FEW031 OVC043 19/12 Q1023 NOSIG
17:00
V
19 °C 10 km+ 4.200 ft 030° 030° 5 kt METAR LFLC 031500Z AUTO 03005KT 350V060 9999 SCT033 OVC042 19/12 Q1023 NOSIG
16:30
V
19 °C 10 km+ 4.400 ft 010° 010° 6 kt METAR LFLC 031430Z AUTO 01006KT 310V050 9999 FEW033 OVC044 19/12 Q1024 NOSIG
16:00
V
19 °C 10 km+ 4.400 ft 360° 360° 6 kt METAR LFLC 031400Z AUTO 36006KT 310V040 9999 FEW030 OVC044 19/13 Q1024 NOSIG
15:30
V
19 °C 10 km+ 4.300 ft 010° 010° 7 kt METAR LFLC 031330Z AUTO 01007KT 340V040 9999 FEW029 OVC043 19/13 Q1024 NOSIG
15:00
V
19 °C 10 km+ 4.300 ft 020° 020° 9 kt METAR LFLC 031300Z AUTO 02009KT 350V070 9999 FEW028 OVC043 19/12 Q1024 NOSIG
14:30
V
19 °C 10 km+ 4.300 ft 340° 340° 7 kt METAR LFLC 031230Z AUTO 34007KT 310V010 9999 FEW028 OVC043 19/13 Q1025 NOSIG
14:00
V
19 °C 10 km+ 4.200 ft 340° 340° 6 kt METAR LFLC 031200Z AUTO 34006KT 300V010 9999 FEW027 OVC042 19/12 Q1025 NOSIG
13:30
V
19 °C 10 km+ 4.200 ft 360° 360° 6 kt METAR LFLC 031130Z AUTO 36006KT 320V040 9999 SCT023 OVC042 19/13 Q1025 NOSIG
13:00
V
18 °C 10 km+ 4.200 ft 360° 360° 4 kt METAR LFLC 031100Z AUTO 36004KT 330V050 9999 FEW023 OVC042 18/12 Q1025 NOSIG
12:30
M
18 °C 10 km+ 2.000 ft 010° 010° 3 kt METAR LFLC 031030Z AUTO 01003KT 310V050 9999 BKN020 OVC045 18/13 Q1025 NOSIG
12:00
M
17 °C 10 km+ 1.800 ft 050° 050° 4 kt METAR LFLC 031000Z AUTO 05004KT 020V080 9999 BKN018 BKN027 OVC038 17/13 Q1025 NOSIG
11:30
M
17 °C 10 km+ 1.600 ft 050° 050° 4 kt METAR LFLC 030930Z AUTO 05004KT 010V090 9999 BKN016 OVC022 17/13 Q1026 NOSIG
11:00
M
16 °C 10 km+ 1.700 ft 030° 030° 3 kt METAR LFLC 030900Z AUTO 03003KT 340V070 9999 BKN017 OVC022 16/13 Q1026 NOSIG
10:30
M
16 °C 10 km+ 1.900 ft 040° 040° 3 kt METAR LFLC 030830Z AUTO 04003KT 360V090 9999 FEW014 BKN019 OVC047 16/13 Q1026 NOSIG
10:00
M
16 °C 10 km+ 1.900 ft Var Var 2 kt METAR LFLC 030800Z AUTO VRB02KT 9999 BKN019 OVC046 16/12 Q1025 NOSIG
09:30
M
15 °C 10 km+ 1.700 ft Var Var 2 kt METAR LFLC 030730Z AUTO VRB02KT 9999 OVC017 15/13 Q1025 NOSIG
09:00
M
14 °C 10 km+ 1.700 ft 090° 090° 2 kt METAR LFLC 030700Z AUTO 09002KT 9999 BKN017 OVC048 14/12 Q1025 TEMPO BKN014
08:30
M
14 °C 10 km+ 1.700 ft Var 000° 0 kt METAR LFLC 030630Z AUTO 00000KT 9999 BKN017 OVC023 14/12 Q1025 TEMPO BKN014
08:00
M
14 °C 10 km+ 1.700 ft 150° 150° 2 kt METAR LFLC 030600Z AUTO 15002KT 9999 BKN017 OVC022 14/12 Q1025 TEMPO BKN014
07:30
I
13 °C 2,2 km 1.800 ft 080° 080° 2 kt METAR LFLC 030530Z AUTO 08002KT 9999 2200 BKN018 OVC024 13/12 Q1025 TEMPO BKN014
07:00
M
13 °C 10 km+ 1.900 ft 260° 260° 2 kt METAR LFLC 030500Z AUTO 26002KT 9999 BKN019 OVC054 13/11 Q1025 NOSIG
06:30
M
13 °C 10 km+ 2.000 ft Var 000° 0 kt METAR LFLC 030430Z AUTO 00000KT 9999 BKN020 BKN028 OVC056 13/11 Q1025 NOSIG
06:00
M
13 °C 10 km+ 2.000 ft Var Var 1 kt METAR LFLC 030400Z AUTO VRB01KT 9999 OVC020 13/12 Q1025 NOSIG
05:30
M
13 °C 10 km+ 2.000 ft 280° 280° 1 kt METAR LFLC 030330Z AUTO 28001KT 9999 BKN020 OVC049 13/11 Q1026 NOSIG
05:00
M
13 °C 10 km+ 2.100 ft 240° 240° 4 kt METAR LFLC 030300Z AUTO 24004KT 9999 BKN021 BKN026 BKN041 13/11 Q1026 NOSIG
04:30
M
13 °C 10 km+ 2.300 ft 260° 260° 2 kt METAR LFLC 030230Z AUTO 26002KT 9999 BKN023 BKN031 OVC040 13/11 Q1026 NOSIG
04:00
M
13 °C 10 km+ 2.600 ft Var 000° 0 kt METAR LFLC 030200Z AUTO 00000KT 9999 BKN026 OVC037 13/11 Q1026 NOSIG
03:30
M
12 °C 10 km+ 2.800 ft Var Var 3 kt METAR LFLC 030130Z AUTO VRB03KT 9999 BKN028 BKN037 BKN045 12/11 Q1026 NOSIG
03:00
V
12 °C 10 km+ - Var Var 2 kt METAR LFLC 030100Z AUTO VRB02KT 9999 FEW033 12/10 Q1026 NOSIG
02:30
V
12 °C 10 km+ - 280° 280° 1 kt METAR LFLC 030030Z AUTO 28001KT 9999 FEW064 12/11 Q1026 NOSIG
02:00
V
14 °C 10 km+ 6.400 ft Var Var 2 kt METAR LFLC 030000Z AUTO VRB02KT 9999 BKN064 14/11 Q1026 NOSIG
01:30
V
14 °C 10 km+ 6.400 ft Var 000° 0 kt METAR LFLC 022330Z AUTO 00000KT 9999 FEW052 OVC064 14/11 Q1026 NOSIG
01:00
V
15 °C 10 km+ 6.600 ft Var Var 2 kt METAR LFLC 022300Z AUTO VRB02KT 9999 SCT052 OVC066 15/11 Q1026 NOSIG
00:30
V
15 °C 10 km+ 5.200 ft 120° 120° 3 kt METAR LFLC 022230Z AUTO 12003KT 060V140 9999 BKN052 OVC062 15/11 Q1026 NOSIG
00:00
V
14 °C 10 km+ 5.400 ft 080° 080° 5 kt METAR LFLC 022200Z AUTO 08005KT 9999 OVC054 14/11 Q1026 NOSIG

2 octobre 2022

Temps Code Temps Temp. Vue Base cloud Vent METAR/SPECI
23:30
V
15 °C 10 km+ 5.600 ft 070° 070° 6 kt METAR LFLC 022130Z AUTO 07006KT 9999 OVC056 15/11 Q1026 NOSIG
23:00
V
14 °C 10 km+ 5.600 ft 240° 240° 3 kt METAR LFLC 022100Z AUTO 24003KT 9999 BKN056 14/11 Q1026 NOSIG
22:30
V
13 °C 10 km+ - Var Var 2 kt METAR LFLC 022030Z AUTO VRB02KT 9999 SCT054 13/10 Q1026 NOSIG
22:00
V
15 °C 10 km+ - Var Var 1 kt METAR LFLC 022000Z AUTO VRB01KT 9999 SCT044 15/10 Q1025 NOSIG
21:30
V
16 °C 10 km+ - 350° 350° 3 kt METAR LFLC 021930Z AUTO 35003KT 300V080 9999 SCT046 16/11 Q1025 NOSIG
21:00
V
16 °C 10 km+ - 340° 340° 4 kt METAR LFLC 021900Z AUTO 34004KT 260V020 9999 FEW043 SCT052 16/11 Q1025 NOSIG
20:30
V
17 °C 10 km+ - 290° 290° 3 kt METAR LFLC 021830Z AUTO 29003KT CAVOK 17/10 Q1025 NOSIG
20:00
V
18 °C 10 km+ - Var Var 3 kt METAR LFLC 021800Z AUTO VRB03KT CAVOK 18/10 Q1025 NOSIG
19:30
V
19 °C 10 km+ - 290° 290° 5 kt METAR LFLC 021730Z AUTO 29005KT 250V010 9999 FEW043 19/11 Q1024 NOSIG
19:00
V
20 °C 10 km+ - 300° 300° 4 kt METAR LFLC 021700Z AUTO 30004KT 230V360 CAVOK 20/11 Q1024 NOSIG
Données plus anciennes

Nous et des tiers suivons ton comportement sur Internet sur notre site Web à l'aide de cookies. Si tu continues, nous supposons que tu acceptes notre politique en matière de cookies. Apprendre plus